Forside
METAR-TAF:

METAR-TAF

Lufthavne :

Semey, Kasakhstan

Breddekreds: 50-21-05N, længdekreds: 080-14-04E, højde: 232 m

Aktuelle vejr

Denne rapport blev lavet for 36 minutter siden, kl. 12:00 UTC
Vind 8 kt fra østsydøst
Temperatur 19°C
Fugtighed 28%
Tryk 1018 hPa
Sigt 10 km eller mere
ingen skyer under 1500m og ingen cumulonimbus

METAR: UASS 191200Z 12004MPS CAVOK 19/M00 Q1018 R08/0///60 NOSIG RMK QFE743/0991

Tid: 18:36 (12:36 UTC)

Vejrudsigter

Denne rapport blev lavet for 1 time og 36 minutter siden, kl. 11:00 UTC
Foreløbig gælder fra 19 på 12 UTC til 19 på 21 UTC
Vind 10 kt fra øst med vindstød på up til 19 kt
Sigt 10 km eller mere

TAF: UASS 191100Z 1912/1921 09005G10MPS 9999 NSC

Vejrobservationer og prognoser fra mere end 4000 lufthavne (METAR og TAF).

De gule og røde prikker repræsenterer de meteorologiske stationer.

Flyt musen over at se navnet på stationen.

Så klik over at se vejr observationer og prognoser.

At skifte det kort: Klik på de grønne knapper med et sort kors for at zoome ind; på den grønne knap med en bindestreg for at zoome ud; eller på de grønne pile for tilstødende kort.


METAR-TAF: